KFME

Tipton Airport

Fort Meade(Odenton), Maryland, USA
METAR KFME 201457Z AUTO 22009KT 10SM SCT080 16/12 A3039 RMK AO1
Observed Flight Rules
Feb-20 @ 14:57 UTC (5 hours ago) Visual Flight Rules
Wind Visibility Clouds
220° at 9 knots 10 miles
  • Scattered at 8,000' AGL
Temperatures Readings
Current 16°C / 61°F
Dewpoint 12°C / 54°F
Humidity 77%
Altimeter 30.39" Hg
Pressure 1029 hPa
Elevation 46
METAR KFME 201457Z AUTO 22009KT 10SM SCT080 16/12 A3039 RMK AO1
Observed Flight Rules
Feb-20 @ 14:57 UTC
(5 hours ago)
VFR
Wind Visibility
220° at 9 knots 10 miles
Clouds
  • Scattered at 8,000' AGL
Temperature Dewpoint
16°C / 61°F 12°C / 54°F
Humidity Altimeter Pressure
77% 30.39" Hg 1029 hPa